createdAt,value
2023-03-14T00:00:19.842Z,56.83
2023-03-14T00:02:53.082Z,56.88
2023-03-14T00:05:21.260Z,56.91
2023-03-14T00:07:49.705Z,57.10
2023-03-14T00:10:19.259Z,57.16
2023-03-14T00:12:47.351Z,57.21
2023-03-14T00:15:15.510Z,57.20
2023-03-14T00:17:45.615Z,57.37
2023-03-14T00:20:13.852Z,57.64
2023-03-14T00:22:42.173Z,57.83
2023-03-14T00:25:10.934Z,57.98
2023-03-14T00:27:39.448Z,58.08
2023-03-14T00:30:09.246Z,58.22
2023-03-14T00:32:38.043Z,58.30
2023-03-14T00:35:11.411Z,58.64
2023-03-14T00:37:40.048Z,58.61
2023-03-14T00:40:09.276Z,58.92
2023-03-14T00:42:43.296Z,59.08
2023-03-14T00:45:11.599Z,59.20
2023-03-14T00:47:42.117Z,59.36
2023-03-14T00:50:11.127Z,59.38
2023-03-14T00:52:40.582Z,59.49
2023-03-14T00:55:09.166Z,59.45
2023-03-14T00:57:37.351Z,59.40
2023-03-14T01:00:09.308Z,59.44
2023-03-14T01:02:37.682Z,59.38
2023-03-14T01:05:06.091Z,59.39
2023-03-14T01:07:34.504Z,59.46
2023-03-14T01:10:03.544Z,59.46
2023-03-14T01:12:35.975Z,59.67
2023-03-14T01:15:05.453Z,59.82
2023-03-14T01:17:34.283Z,59.85
2023-03-14T01:20:07.590Z,59.66
2023-03-14T01:22:40.838Z,59.46
2023-03-14T01:25:14.073Z,59.39
2023-03-14T01:27:43.166Z,59.46
2023-03-14T01:30:12.468Z,59.47
2023-03-14T01:32:41.289Z,59.47
2023-03-14T01:35:09.973Z,59.43
2023-03-14T01:37:38.459Z,59.50
2023-03-14T01:40:11.658Z,59.61
2023-03-14T01:42:39.830Z,59.54
2023-03-14T01:45:47.150Z,59.55
2023-03-14T01:48:15.811Z,59.77
2023-03-14T01:50:52.938Z,59.69
2023-03-14T01:53:22.489Z,59.80
2023-03-14T01:55:58.082Z,59.90
2023-03-14T01:58:28.523Z,59.87
2023-03-14T02:00:57.724Z,59.83
2023-03-14T02:03:26.408Z,59.96
2023-03-14T02:05:55.150Z,60.09
2023-03-14T02:08:26.337Z,60.17
2023-03-14T02:11:18.364Z,60.16
2023-03-14T02:14:01.633Z,60.12
2023-03-14T02:16:48.366Z,59.90
2023-03-14T02:19:50.554Z,59.61
2023-03-14T02:23:08.224Z,59.47
2023-03-14T02:25:49.292Z,59.46
2023-03-14T02:28:37.121Z,59.28
2023-03-14T02:31:07.728Z,59.39
2023-03-14T02:33:40.550Z,59.23
2023-03-14T02:36:10.842Z,59.11
2023-03-14T02:38:45.050Z,59.14
2023-03-14T02:41:15.531Z,59.27
2023-03-14T02:43:52.170Z,59.32
2023-03-14T02:46:23.060Z,59.52
2023-03-14T02:48:59.374Z,59.50
2023-03-14T02:51:30.169Z,59.55
2023-03-14T02:54:03.171Z,59.54
2023-03-14T02:56:31.802Z,59.46
2023-03-14T02:59:04.343Z,59.53
2023-03-14T03:01:52.385Z,59.43
2023-03-14T03:04:20.645Z,59.39
2023-03-14T03:06:48.765Z,59.51
2023-03-14T03:09:21.607Z,59.56
2023-03-14T03:11:52.374Z,59.61
2023-03-14T03:14:48.523Z,59.79
2023-03-14T03:17:20.218Z,59.93
2023-03-14T03:19:48.392Z,59.92
2023-03-14T03:22:16.500Z,60.00
2023-03-14T03:24:45.699Z,59.91
2023-03-14T03:27:13.934Z,59.96
2023-03-14T03:29:43.052Z,59.87
2023-03-14T03:32:11.386Z,59.84
2023-03-14T03:34:39.592Z,59.62
2023-03-14T03:37:07.739Z,59.57
2023-03-14T03:39:38.327Z,59.55
2023-03-14T03:42:09.726Z,59.58
2023-03-14T03:44:40.021Z,59.45
2023-03-14T03:47:09.054Z,59.68
2023-03-14T03:49:37.435Z,59.83
2023-03-14T03:52:06.732Z,59.82
2023-03-14T03:54:34.817Z,59.94
2023-03-14T03:57:06.296Z,60.15
2023-03-14T03:59:39.768Z,60.05
2023-03-14T04:02:08.599Z,60.38
2023-03-14T04:04:40.311Z,60.64
2023-03-14T04:07:11.728Z,60.75
2023-03-14T04:16:20.809Z,61.55
2023-03-14T04:18:49.788Z,61.68
2023-03-14T04:21:21.234Z,61.57
2023-03-14T04:23:52.567Z,61.64
2023-03-14T04:26:21.426Z,61.57
2023-03-14T04:28:50.247Z,61.39
2023-03-14T04:31:20.891Z,61.23
2023-03-14T04:33:51.796Z,61.12
2023-03-14T04:36:26.050Z,61.15
2023-03-14T04:38:54.564Z,61.28
2023-03-14T04:41:25.621Z,61.48
2023-03-14T04:43:54.403Z,61.78
2023-03-14T04:46:25.686Z,62.00
2023-03-14T04:48:54.115Z,62.04
2023-03-14T04:51:24.569Z,62.35
2023-03-14T04:53:55.742Z,62.36
2023-03-14T04:56:25.082Z,62.36
2023-03-14T04:58:54.289Z,62.42
2023-03-14T05:01:23.041Z,62.42
2023-03-14T05:04:18.081Z,62.50
2023-03-14T05:06:57.235Z,62.05
2023-03-14T05:09:31.837Z,61.81
2023-03-14T05:12:18.853Z,61.55
2023-03-14T05:15:25.641Z,61.54
2023-03-14T05:18:17.983Z,61.43
2023-03-14T05:20:57.424Z,61.47
2023-03-14T05:23:45.553Z,61.55
2023-03-14T05:26:24.681Z,61.80
2023-03-14T05:29:05.449Z,61.82
2023-03-14T05:31:49.571Z,62.05
2023-03-14T05:34:44.517Z,62.25
2023-03-14T05:37:30.377Z,62.29
2023-03-14T05:40:19.850Z,62.28
2023-03-14T05:43:09.173Z,62.21
2023-03-14T05:45:58.260Z,61.79
2023-03-14T05:48:30.153Z,61.91
2023-03-14T05:51:17.695Z,61.42
2023-03-14T05:54:06.042Z,61.08
2023-03-14T05:56:58.716Z,61.08
2023-03-14T05:59:42.224Z,61.49
2023-03-14T06:02:47.176Z,61.60
2023-03-14T06:05:23.123Z,61.18
2023-03-14T06:08:00.223Z,60.96
2023-03-14T06:10:30.199Z,60.81
2023-03-14T06:13:02.007Z,60.90
2023-03-14T06:15:30.832Z,60.77
2023-03-14T06:18:03.486Z,60.41
2023-03-14T06:20:31.781Z,60.14
2023-03-14T06:23:02.662Z,60.04
2023-03-14T06:25:32.694Z,59.36
2023-03-14T06:28:01.379Z,58.78
2023-03-14T06:30:30.076Z,58.36
2023-03-14T06:32:59.610Z,58.49
2023-03-14T06:35:28.707Z,58.33
2023-03-14T06:37:56.871Z,58.08
2023-03-14T06:40:25.195Z,58.05
2023-03-14T06:43:03.378Z,57.63
2023-03-14T06:45:34.520Z,57.64
2023-03-14T07:04:46.306Z,54.93
2023-03-14T07:07:14.730Z,54.38
2023-03-14T07:09:43.493Z,54.25
2023-03-14T07:12:19.188Z,53.90
2023-03-14T07:14:49.235Z,54.13
2023-03-14T07:17:17.369Z,54.30
2023-03-14T07:19:50.347Z,53.65
2023-03-14T07:22:20.070Z,53.47
2023-03-14T07:24:48.885Z,53.39
2023-03-14T07:27:17.762Z,53.54
2023-03-14T07:29:45.882Z,53.03
2023-03-14T07:32:17.698Z,52.98
2023-03-14T07:34:45.838Z,53.21
2023-03-14T07:37:13.917Z,52.75
2023-03-14T07:39:43.421Z,52.36
2023-03-14T07:42:19.229Z,52.20
2023-03-14T07:45:18.114Z,51.78
2023-03-14T07:47:48.214Z,51.68
2023-03-14T07:50:17.089Z,51.28
2023-03-14T07:52:45.139Z,50.72
2023-03-14T07:55:14.782Z,50.91
2023-03-14T07:57:45.950Z,50.28
2023-03-14T08:00:16.040Z,49.59
2023-03-14T08:02:44.734Z,49.55
2023-03-14T08:05:13.542Z,49.09
2023-03-14T08:07:42.051Z,48.62
2023-03-14T08:10:22.156Z,48.70
2023-03-14T08:12:51.875Z,48.87
2023-03-14T08:15:20.633Z,48.85
2023-03-14T08:17:52.243Z,49.01
2023-03-14T08:20:26.573Z,49.11
2023-03-14T08:22:58.966Z,48.58
2023-03-14T08:25:28.944Z,48.04
2023-03-14T08:27:57.732Z,47.62
2023-03-14T08:30:26.495Z,46.91
2023-03-14T08:32:59.159Z,46.38
2023-03-14T08:35:31.312Z,46.01
2023-03-14T08:38:02.508Z,45.91
2023-03-14T08:40:33.386Z,45.81
2023-03-14T08:43:09.031Z,45.79
2023-03-14T08:45:39.273Z,44.92
2023-03-14T08:48:09.330Z,44.75
2023-03-14T08:50:37.717Z,44.71
2023-03-14T08:53:06.614Z,44.04
2023-03-14T08:55:38.028Z,43.72
2023-03-14T08:58:06.192Z,43.33
2023-03-14T09:00:35.753Z,42.56
2023-03-14T09:03:04.544Z,41.55
2023-03-14T09:05:35.573Z,41.07
2023-03-14T09:08:07.465Z,41.35
2023-03-14T09:10:36.542Z,40.80
2023-03-14T09:13:05.204Z,40.23
2023-03-14T09:15:34.440Z,39.86
2023-03-14T09:18:02.997Z,39.78
2023-03-14T09:20:32.002Z,39.46
2023-03-14T09:23:03.408Z,39.43
2023-03-14T09:25:32.053Z,39.23
2023-03-14T09:28:04.037Z,38.63
2023-03-14T09:30:32.767Z,39.09
2023-03-14T09:33:01.263Z,38.70
2023-03-14T09:35:29.937Z,38.60
2023-03-14T09:37:58.417Z,38.80
2023-03-14T09:46:22.701Z,38.55
2023-03-14T09:50:41.614Z,37.90
2023-03-14T09:53:16.062Z,37.61
2023-03-14T09:55:44.346Z,37.50
2023-03-14T09:58:21.377Z,37.26
2023-03-14T10:00:57.554Z,37.58
2023-03-14T10:03:33.440Z,36.98
2023-03-14T10:06:01.777Z,37.06
2023-03-14T10:08:33.504Z,37.06
2023-03-14T10:11:04.017Z,37.00
2023-03-14T10:13:32.838Z,37.22
2023-03-14T10:16:03.045Z,36.62
2023-03-14T10:18:37.221Z,36.60
2023-03-14T10:21:19.990Z,37.15
2023-03-14T10:23:50.021Z,37.40
2023-03-14T10:26:24.534Z,37.41
2023-03-14T10:28:54.570Z,36.75
2023-03-14T10:31:25.954Z,36.69
2023-03-14T10:34:12.596Z,36.59
2023-03-14T10:36:40.749Z,36.66
2023-03-14T10:39:21.259Z,36.53
2023-03-14T10:41:50.055Z,37.37
2023-03-14T10:44:22.170Z,37.63
2023-03-14T10:47:02.152Z,37.32
2023-03-14T10:49:35.280Z,36.87
2023-03-14T10:52:11.918Z,36.33
2023-03-14T10:54:41.882Z,35.50
2023-03-14T10:57:12.322Z,35.34
2023-03-14T10:59:41.211Z,34.81
2023-03-14T11:02:31.012Z,33.50
2023-03-14T11:05:11.022Z,33.94
2023-03-14T11:07:43.144Z,34.14
2023-03-14T11:10:21.830Z,34.26
2023-03-14T11:13:03.838Z,34.15
2023-03-14T11:15:37.710Z,33.71
2023-03-14T11:18:21.544Z,33.76
2023-03-14T11:20:54.136Z,33.65
2023-03-14T11:23:34.352Z,33.68
2023-03-14T11:26:12.670Z,33.39
2023-03-14T11:28:45.339Z,33.61
2023-03-14T11:31:36.410Z,32.14
2023-03-14T11:34:27.133Z,32.04
2023-03-14T11:37:48.615Z,31.72
2023-03-14T11:40:30.401Z,31.56
2023-03-14T11:43:08.012Z,31.60
2023-03-14T11:45:43.324Z,31.49
2023-03-14T11:48:33.629Z,31.17
2023-03-14T11:51:03.397Z,31.22
2023-03-14T11:53:56.929Z,31.47
2023-03-14T11:56:30.078Z,31.30
2023-03-14T11:59:02.926Z,31.21
2023-03-14T12:02:10.585Z,31.27
2023-03-14T12:04:53.800Z,31.57
2023-03-14T12:07:25.608Z,31.65
2023-03-14T12:09:56.380Z,31.35
2023-03-14T12:12:26.799Z,31.67
2023-03-14T12:15:06.764Z,31.60
2023-03-14T12:17:36.816Z,31.52
2023-03-14T12:20:17.271Z,31.56
2023-03-14T12:22:50.555Z,31.63
2023-03-14T12:25:24.580Z,31.63
2023-03-14T12:27:59.124Z,31.57
2023-03-14T12:30:30.749Z,31.55
2023-03-14T12:33:19.221Z,31.61
2023-03-14T12:35:52.189Z,31.52
2023-03-14T12:38:50.210Z,31.50
2023-03-14T12:41:24.544Z,31.30
2023-03-14T12:43:57.897Z,31.04
2023-03-14T12:46:28.787Z,31.51
2023-03-14T12:49:01.525Z,32.51
2023-03-14T12:51:36.996Z,31.78
2023-03-14T12:54:26.512Z,31.96
2023-03-14T12:57:03.006Z,31.18
2023-03-14T12:59:36.377Z,30.96
2023-03-14T13:02:07.664Z,31.00
2023-03-14T13:05:05.495Z,31.51
2023-03-14T13:08:00.423Z,32.14
2023-03-14T13:10:37.207Z,31.91
2023-03-14T13:13:15.766Z,31.79
2023-03-14T13:15:46.518Z,31.21
2023-03-14T13:18:37.764Z,31.47
2023-03-14T13:21:21.152Z,31.62
2023-03-14T13:23:59.373Z,31.62
2023-03-14T13:26:41.214Z,31.69
2023-03-14T13:29:32.422Z,31.91
2023-03-14T13:32:18.176Z,31.78
2023-03-14T13:34:49.702Z,31.54
2023-03-14T13:37:25.556Z,31.56
2023-03-14T13:39:57.024Z,31.08
2023-03-14T13:42:29.151Z,30.76
2023-03-14T13:44:57.862Z,30.90
2023-03-14T13:47:26.789Z,31.04
2023-03-14T13:49:55.067Z,30.94
2023-03-14T13:52:24.186Z,31.07
2023-03-14T13:54:55.210Z,30.79
2023-03-14T13:57:23.914Z,30.97
2023-03-14T14:00:02.757Z,30.92
2023-03-14T14:02:34.574Z,30.85
2023-03-14T14:05:05.607Z,31.30
2023-03-14T14:07:36.407Z,30.95
2023-03-14T14:10:05.320Z,31.59
2023-03-14T14:12:38.593Z,31.23
2023-03-14T14:15:17.244Z,30.71
2023-03-14T14:17:54.994Z,30.73
2023-03-14T14:20:35.957Z,30.75
2023-03-14T14:23:12.166Z,30.74
2023-03-14T14:25:40.630Z,30.46
2023-03-14T14:28:28.448Z,30.66
2023-03-14T14:31:18.949Z,30.78
2023-03-14T14:34:01.912Z,30.98
2023-03-14T14:36:39.737Z,30.94
2023-03-14T14:39:30.114Z,30.95
2023-03-14T14:41:58.932Z,30.83
2023-03-14T14:44:36.987Z,31.22
2023-03-14T14:47:05.391Z,31.24
2023-03-14T14:49:36.788Z,31.56
2023-03-14T14:52:19.718Z,31.84
2023-03-14T14:54:55.016Z,31.83
2023-03-14T14:57:26.082Z,32.02
2023-03-14T14:59:56.230Z,32.33
2023-03-14T15:02:41.231Z,32.21
2023-03-14T15:05:26.263Z,32.29
2023-03-14T15:07:54.670Z,32.31
2023-03-14T15:10:29.143Z,32.38
2023-03-14T15:12:57.735Z,32.69
2023-03-14T15:15:25.873Z,32.50
2023-03-14T15:17:53.951Z,32.44
2023-03-14T15:20:24.835Z,32.37
2023-03-14T15:22:53.600Z,32.44
2023-03-14T15:25:47.216Z,32.49
2023-03-14T15:28:21.529Z,33.00
2023-03-14T15:30:51.518Z,32.36
2023-03-14T15:33:20.593Z,32.53
2023-03-14T15:35:53.126Z,32.96
2023-03-14T15:38:24.173Z,33.04
2023-03-14T15:47:33.564Z,32.67
2023-03-14T15:50:01.965Z,32.42
2023-03-14T15:52:30.584Z,32.48
2023-03-14T15:54:59.372Z,32.57
2023-03-14T15:57:28.904Z,32.52
2023-03-14T15:59:59.464Z,32.59
2023-03-14T16:02:29.322Z,32.59
2023-03-14T16:04:58.018Z,32.90
2023-03-14T16:07:27.353Z,32.92
2023-03-14T16:09:55.906Z,33.03
2023-03-14T16:12:26.234Z,33.42
2023-03-14T16:14:54.968Z,33.64
2023-03-14T16:17:32.719Z,34.05
2023-03-14T16:20:01.497Z,34.41
2023-03-14T16:22:34.519Z,34.88
2023-03-14T16:25:06.376Z,35.77
2023-03-14T16:27:35.067Z,36.52
2023-03-14T16:30:04.890Z,36.73
2023-03-14T16:32:33.889Z,36.80
2023-03-14T16:35:04.572Z,37.13
2023-03-14T16:37:35.167Z,37.73
2023-03-14T16:40:13.280Z,38.34
2023-03-14T16:45:33.403Z,38.50
2023-03-14T16:48:01.807Z,38.53
2023-03-14T16:50:30.715Z,38.54
2023-03-14T16:53:02.438Z,38.66
2023-03-14T16:55:31.181Z,38.87
2023-03-14T16:58:01.064Z,39.07
2023-03-14T17:00:30.945Z,39.04
2023-03-14T17:02:59.257Z,39.32
2023-03-14T17:05:27.650Z,39.44
2023-03-14T17:07:58.161Z,39.44
2023-03-14T17:10:26.724Z,39.49
2023-03-14T17:12:56.089Z,39.65
2023-03-14T17:15:24.544Z,39.62
2023-03-14T17:17:54.217Z,39.90
2023-03-14T17:20:24.882Z,39.95
2023-03-14T17:22:53.646Z,40.17
2023-03-14T17:25:21.956Z,40.44
2023-03-14T17:27:52.603Z,40.65
2023-03-14T17:30:20.992Z,40.64
2023-03-14T17:32:49.446Z,40.59
2023-03-14T17:35:18.318Z,40.73
2023-03-14T17:37:49.143Z,40.95
2023-03-14T17:40:18.456Z,40.91
2023-03-14T17:42:48.764Z,40.79
2023-03-14T17:45:22.109Z,40.80
2023-03-14T17:47:50.967Z,40.82
2023-03-14T17:50:19.589Z,41.10
2023-03-14T17:52:50.340Z,41.37
2023-03-14T17:55:19.504Z,41.28
2023-03-14T17:57:55.092Z,41.42
2023-03-14T18:00:26.323Z,41.42
2023-03-14T18:02:59.083Z,41.47
2023-03-14T18:05:29.315Z,41.77
2023-03-14T18:08:00.533Z,42.23
2023-03-14T18:10:31.393Z,42.90
2023-03-14T18:13:12.124Z,42.59
2023-03-14T18:15:41.679Z,42.54
2023-03-14T18:18:16.712Z,42.57
2023-03-14T18:20:55.294Z,42.76
2023-03-14T18:23:29.219Z,42.51
2023-03-14T18:26:04.405Z,42.34
2023-03-14T18:28:35.971Z,42.29
2023-03-14T18:31:08.696Z,42.20
2023-03-14T18:33:42.892Z,42.16
2023-03-14T18:36:14.334Z,42.51
2023-03-14T18:38:52.727Z,43.03
2023-03-14T18:41:26.438Z,43.15
2023-03-14T18:43:56.053Z,43.32
2023-03-14T18:46:27.558Z,43.06
2023-03-14T18:49:04.967Z,42.66
2023-03-14T18:51:35.936Z,42.64
2023-03-14T18:54:11.774Z,42.57
2023-03-14T18:56:43.303Z,42.55
2023-03-14T18:59:11.856Z,42.62
2023-03-14T19:01:43.448Z,42.36
2023-03-14T19:04:12.052Z,42.28
2023-03-14T19:06:42.945Z,42.20
2023-03-14T19:09:14.235Z,42.29
2023-03-14T19:11:43.832Z,42.32
2023-03-14T19:14:16.279Z,42.86
2023-03-14T19:16:48.468Z,43.30
2023-03-14T19:19:19.426Z,43.55
2023-03-14T19:21:56.952Z,43.38
2023-03-14T19:24:45.294Z,43.26
2023-03-14T19:27:16.151Z,43.41
2023-03-14T19:29:46.290Z,43.28
2023-03-14T19:32:14.919Z,43.41
2023-03-14T19:34:53.035Z,43.48
2023-03-14T19:37:22.790Z,43.77
2023-03-14T19:39:55.265Z,44.15
2023-03-14T19:42:25.036Z,44.90
2023-03-14T19:44:54.657Z,45.04
2023-03-14T19:47:25.047Z,45.15
2023-03-14T19:49:53.952Z,45.43
2023-03-14T19:52:25.661Z,45.44
2023-03-14T19:54:57.653Z,45.56
2023-03-14T19:57:30.761Z,45.72
2023-03-14T19:59:59.649Z,45.73
2023-03-14T20:02:29.530Z,45.89
2023-03-14T20:04:58.675Z,46.12
2023-03-14T20:07:28.122Z,46.42
2023-03-14T20:09:56.476Z,46.62
2023-03-14T20:12:28.226Z,46.58
2023-03-14T20:14:56.306Z,46.57
2023-03-14T20:17:29.941Z,46.55
2023-03-14T20:20:00.585Z,46.49
2023-03-14T20:22:33.084Z,46.54
2023-03-14T20:25:03.537Z,46.44
2023-03-14T20:27:33.623Z,46.51
2023-03-14T20:30:11.882Z,46.67
2023-03-14T20:32:42.483Z,46.44
2023-03-14T20:35:11.696Z,46.57
2023-03-14T20:37:40.135Z,46.72
2023-03-14T20:40:11.130Z,46.71
2023-03-14T20:42:45.028Z,46.51
2023-03-14T20:45:13.209Z,46.61
2023-03-14T20:47:41.593Z,46.83
2023-03-14T20:50:10.509Z,46.85
2023-03-14T20:52:40.006Z,46.91
2023-03-14T20:55:08.499Z,46.86
2023-03-14T20:57:36.863Z,46.74
2023-03-14T21:00:08.877Z,46.23
2023-03-14T21:05:27.317Z,45.72
2023-03-14T21:07:55.516Z,45.64
2023-03-14T21:10:23.847Z,45.30
2023-03-14T21:12:52.243Z,45.19
2023-03-14T21:15:22.115Z,45.08
2023-03-14T21:17:53.638Z,44.80
2023-03-14T21:20:22.132Z,44.65
2023-03-14T21:22:50.194Z,44.59
2023-03-14T21:25:18.442Z,44.83
2023-03-14T21:27:50.551Z,44.85
2023-03-14T21:30:20.093Z,44.58
2023-03-14T21:32:52.208Z,44.40
2023-03-14T21:35:20.832Z,44.38
2023-03-14T21:37:51.450Z,44.59
2023-03-14T21:40:20.043Z,44.83
2023-03-14T21:42:49.241Z,44.84
2023-03-14T21:45:17.876Z,44.61
2023-03-14T21:47:51.256Z,44.42
2023-03-14T21:50:23.564Z,44.11
2023-03-14T21:52:57.105Z,43.55
2023-03-14T21:55:26.169Z,43.52
2023-03-14T21:57:55.119Z,43.45
2023-03-14T22:00:23.901Z,43.83
2023-03-14T22:07:56.532Z,43.39
2023-03-14T22:10:27.191Z,43.28
2023-03-14T22:12:57.933Z,43.31
2023-03-14T22:15:26.355Z,43.18
2023-03-14T22:17:54.488Z,43.51
2023-03-14T22:20:24.426Z,43.89
2023-03-14T22:22:52.729Z,43.38
2023-03-14T22:25:23.004Z,43.16
2023-03-14T22:27:51.338Z,43.07
2023-03-14T22:30:19.489Z,43.18
2023-03-14T22:32:48.657Z,43.19
2023-03-14T22:35:16.915Z,43.17
2023-03-14T22:37:49.166Z,43.16
2023-03-14T22:40:18.970Z,43.27
2023-03-14T22:42:48.442Z,43.60
2023-03-14T22:45:16.763Z,43.99
2023-03-14T22:47:45.134Z,44.25
2023-03-14T22:50:17.986Z,44.50
2023-03-14T22:52:47.255Z,44.50
2023-03-14T22:55:20.610Z,44.56
2023-03-14T22:57:57.809Z,44.68
2023-03-14T23:00:27.244Z,44.81
2023-03-14T23:02:56.774Z,44.97
2023-03-14T23:05:24.923Z,44.97
2023-03-14T23:07:53.611Z,45.29
2023-03-14T23:10:23.948Z,45.28
2023-03-14T23:12:54.437Z,45.37
2023-03-14T23:15:24.351Z,45.26
2023-03-14T23:17:53.652Z,45.31
2023-03-14T23:20:21.720Z,45.19
2023-03-14T23:22:52.778Z,45.14
2023-03-14T23:25:23.254Z,45.03
2023-03-14T23:27:54.376Z,44.93
2023-03-14T23:30:22.845Z,44.79
2023-03-14T23:32:51.677Z,44.72
2023-03-14T23:35:19.857Z,44.49
2023-03-14T23:37:49.961Z,44.58
2023-03-14T23:40:18.489Z,44.45
2023-03-14T23:42:48.268Z,44.34
2023-03-14T23:45:16.404Z,44.47
2023-03-14T23:47:45.384Z,44.80
2023-03-14T23:50:13.853Z,44.86
2023-03-14T23:52:42.961Z,45.03
2023-03-14T23:55:11.156Z,45.16
2023-03-14T23:57:39.354Z,45.18
